Time;durP1;ratioP1;P1;durP2;ratioP2;P2;SDS_P1;SDS_P2;PMS_P1;PMS_P2;Temp;Humidity;BMP_temperature;BMP_pressure;BME280_temperature;BME280_humidity;BME280_pressure;Samples;Min_cycle;Max_cycle;Signal;HPM_P1;HPM_P2
2022/08/04 00:02:01;;;;;;;3.00;2.80;;;;;;;;;;5984099;23;20392;-93
2022/08/04 00:04:27;;;;;;;3.40;3.20;;;;;;;;;;5985216;23;20405;-92
2022/08/04 00:06:59;;;;;;;2.70;2.60;;;;;;;;;;5984086;23;20964;-93
2022/08/04 00:09:30;;;;;;;3.17;2.97;;;;;;;;;;5985680;23;20456;-93
2022/08/04 00:11:57;;;;;;;4.57;2.40;;;;;;;;;;5987653;23;20874;-93
2022/08/04 00:14:24;;;;;;;4.80;2.10;;;;;;;;;;5992247;23;20373;-92
2022/08/04 00:16:53;;;;;;;6.43;2.83;;;;;;;;;;5986315;23;20404;-92
2022/08/04 00:19:38;;;;;;;3.20;3.00;;;;;;;;;;5984769;23;20405;-93
2022/08/04 00:22:04;;;;;;;4.63;2.60;;;;;;;;;;5981940;23;20908;-91
2022/08/04 00:24:31;;;;;;;3.20;2.90;;;;;;;;;;5979667;23;20404;-92
2022/08/04 00:26:57;;;;;;;2.60;2.50;;;;;;;;;;5984127;23;20546;-93
2022/08/04 00:29:23;;;;;;;2.70;2.50;;;;;;;;;;5985170;23;20435;-92
2022/08/04 00:31:49;;;;;;;2.50;2.40;;;;;;;;;;6008085;23;20427;-93
2022/08/04 00:34:15;;;;;;;4.50;2.80;;;;;;;;;;5986212;23;20389;-94
2022/08/04 00:36:44;;;;;;;4.10;2.50;;;;;;;;;;5983587;23;20408;-93
2022/08/04 00:39:11;;;;;;;5.67;3.43;;;;;;;;;;5985767;23;20388;-92
2022/08/04 00:41:52;;;;;;;2.67;2.47;;;;;;;;;;5983549;23;20484;-92
2022/08/04 00:44:35;;;;;;;2.57;2.37;;;;;;;;;;5984713;23;20385;-93
2022/08/04 00:47:11;;;;;;;3.17;3.03;;;;;;;;;;5983457;23;20404;-94
2022/08/04 00:49:55;;;;;;;3.77;2.43;;;;;;;;;;5984974;23;20392;-93
2022/08/04 00:52:32;;;;;;;3.77;2.27;;;;;;;;;;5983330;23;20500;-92
2022/08/04 00:55:17;;;;;;;6.63;2.63;;;;;;;;;;6010430;23;20357;-93
2022/08/04 00:57:51;;;;;;;2.97;2.50;;;;;;;;;;6008014;23;20377;-92
2022/08/04 01:00:18;;;;;;;2.80;2.63;;;;;;;;;;5991382;23;20432;-93
2022/08/04 01:02:50;;;;;;;2.50;2.30;;;;;;;;;;6005280;23;21024;-94
2022/08/04 01:05:35;;;;;;;2.63;2.30;;;;;;;;;;6007208;23;20409;-93
2022/08/04 01:08:01;;;;;;;3.10;2.77;;;;;;;;;;5984522;23;20458;-92
2022/08/04 01:10:33;;;;;;;3.70;3.00;;;;;;;;;;6010763;23;20377;-92
2022/08/04 01:13:18;;;;;;;3.77;2.57;;;;;;;;;;5983931;23;20428;-93
2022/08/04 01:15:57;;;;;;;2.80;2.60;;;;;;;;;;5984740;23;20419;-92
2022/08/04 01:18:42;;;;;;;4.23;2.70;;;;;;;;;;5985836;23;21051;-92
2022/08/04 01:21:22;;;;;;;3.10;2.53;;;;;;;;;;5983720;23;20397;-92
2022/08/04 01:23:57;;;;;;;3.07;2.73;;;;;;;;;;5980428;23;20389;-92
2022/08/04 01:26:42;;;;;;;4.20;3.20;;;;;;;;;;5984027;23;20392;-92
2022/08/04 01:29:09;;;;;;;3.50;2.60;;;;;;;;;;5986203;23;20369;-93
2022/08/04 01:31:44;;;;;;;2.77;2.67;;;;;;;;;;5983882;23;20393;-93
2022/08/04 01:34:11;;;;;;;4.60;2.80;;;;;;;;;;5987500;23;20419;-93
2022/08/04 01:36:39;;;;;;;6.40;3.20;;;;;;;;;;5985712;23;20396;-93
2022/08/04 01:41:52;;;;;;;2.77;2.57;;;;;;;;;;6009290;23;20416;-93
2022/08/04 01:44:19;;;;;;;3.70;2.83;;;;;;;;;;6010746;23;20396;-93
2022/08/04 01:46:49;;;;;;;3.43;3.10;;;;;;;;;;5984072;23;20396;-93
2022/08/04 01:49:16;;;;;;;4.50;2.77;;;;;;;;;;5986380;23;20392;-92
2022/08/04 01:51:44;;;;;;;7.23;2.93;;;;;;;;;;5986866;23;20476;-93
2022/08/04 01:54:10;;;;;;;3.20;3.00;;;;;;;;;;5987806;23;20409;-96
2022/08/04 01:56:36;;;;;;;2.77;2.67;;;;;;;;;;5992245;23;20396;-92
2022/08/04 01:59:03;;;;;;;3.70;2.33;;;;;;;;;;6019559;23;20468;-93
2022/08/04 02:01:29;;;;;;;3.23;3.00;;;;;;;;;;6000561;23;20464;-91
2022/08/04 02:03:55;;;;;;;3.80;3.10;;;;;;;;;;6002741;23;20400;-92
2022/08/04 02:06:24;;;;;;;3.03;2.83;;;;;;;;;;6000809;23;20480;-93
2022/08/04 02:08:56;;;;;;;3.33;2.47;;;;;;;;;;5986513;23;20856;-93
2022/08/04 02:11:22;;;;;;;3.30;3.00;;;;;;;;;;5983820;23;20410;-93
2022/08/04 02:13:51;;;;;;;4.70;3.00;;;;;;;;;;5992092;23;20429;-92
2022/08/04 02:16:20;;;;;;;2.83;2.30;;;;;;;;;;6029025;23;20357;-92
2022/08/04 02:18:53;;;;;;;2.97;2.77;;;;;;;;;;6005280;23;20369;-92
2022/08/04 02:21:19;;;;;;;2.70;2.50;;;;;;;;;;6004450;23;20407;-93
2022/08/04 02:23:51;;;;;;;2.90;2.80;;;;;;;;;;6000984;23;20467;-92
2022/08/04 02:26:17;;;;;;;3.13;2.93;;;;;;;;;;6027430;23;20399;-93
2022/08/04 02:28:48;;;;;;;3.73;3.00;;;;;;;;;;6000093;23;20380;-92
2022/08/04 02:31:18;;;;;;;3.63;2.83;;;;;;;;;;5985958;23;20388;-93
2022/08/04 02:33:46;;;;;;;3.53;2.90;;;;;;;;;;5991190;23;20436;-92
2022/08/04 02:36:16;;;;;;;3.40;3.20;;;;;;;;;;5992866;23;20480;-92
2022/08/04 02:38:49;;;;;;;4.60;3.40;;;;;;;;;;5997144;23;20463;-93
2022/08/04 02:41:17;;;;;;;4.07;2.70;;;;;;;;;;5990363;23;20389;-92
2022/08/04 02:43:43;;;;;;;3.50;3.30;;;;;;;;;;5993194;23;20373;-94
2022/08/04 02:46:10;;;;;;;2.47;2.37;;;;;;;;;;5997433;23;20392;-93
2022/08/04 02:48:37;;;;;;;5.47;3.07;;;;;;;;;;5995297;23;20396;-94
2022/08/04 02:51:05;;;;;;;3.17;3.07;;;;;;;;;;6002781;23;20480;-94
2022/08/04 02:53:32;;;;;;;3.87;3.10;;;;;;;;;;5997897;23;20429;-93
2022/08/04 02:55:59;;;;;;;2.60;2.50;;;;;;;;;;5994642;23;20404;-93
2022/08/04 02:58:29;;;;;;;5.80;3.00;;;;;;;;;;5993121;23;20392;-93
2022/08/04 03:00:55;;;;;;;3.40;3.10;;;;;;;;;;5996670;23;20396;-93
2022/08/04 03:03:21;;;;;;;2.80;2.60;;;;;;;;;;5993662;23;20437;-93
2022/08/04 03:05:50;;;;;;;4.17;3.70;;;;;;;;;;5996210;23;20405;-93
2022/08/04 03:08:25;;;;;;;10.70;3.07;;;;;;;;;;5986966;23;20400;-93
2022/08/04 03:11:02;;;;;;;2.77;2.57;;;;;;;;;;6012455;23;20360;-94
2022/08/04 03:13:28;;;;;;;3.40;3.30;;;;;;;;;;5984760;23;20432;-94
2022/08/04 03:15:54;;;;;;;4.33;2.90;;;;;;;;;;5988366;23;20397;-93
2022/08/04 03:18:32;;;;;;;3.77;3.43;;;;;;;;;;5984868;23;20397;-93
2022/08/04 03:21:10;;;;;;;3.03;2.83;;;;;;;;;;5986202;23;20416;-93
2022/08/04 03:24:06;;;;;;;4.83;2.87;;;;;;;;;;5979628;23;20491;-93
2022/08/04 03:26:32;;;;;;;3.23;3.13;;;;;;;;;;5962258;23;20393;-92
2022/08/04 03:29:07;;;;;;;4.37;4.03;;;;;;;;;;5987315;23;20380;-94
2022/08/04 03:31:45;;;;;;;4.03;3.63;;;;;;;;;;5994335;23;20479;-93
2022/08/04 03:34:14;;;;;;;3.50;3.30;;;;;;;;;;6001939;23;20443;-92
2022/08/04 03:36:53;;;;;;;3.07;2.90;;;;;;;;;;5999791;23;20409;-92
2022/08/04 03:39:22;;;;;;;4.00;2.87;;;;;;;;;;5999233;23;20411;-91
2022/08/04 03:42:00;;;;;;;3.10;2.60;;;;;;;;;;5993689;23;20413;-92
2022/08/04 03:44:41;;;;;;;3.13;2.93;;;;;;;;;;5995955;23;20392;-92
2022/08/04 03:47:26;;;;;;;4.13;3.77;;;;;;;;;;6003271;23;20408;-92
2022/08/04 03:50:01;;;;;;;3.23;3.00;;;;;;;;;;5995163;23;20460;-92
2022/08/04 03:55:35;;;;;;;5.03;3.70;;;;;;;;;;6020517;23;20360;-92
2022/08/04 03:58:04;;;;;;;3.73;2.90;;;;;;;;;;5991113;23;20424;-93
2022/08/04 04:00:36;;;;;;;3.40;2.47;;;;;;;;;;6017315;23;20461;-92
2022/08/04 04:03:22;;;;;;;3.40;3.20;;;;;;;;;;5999188;23;20421;-93
2022/08/04 04:05:53;;;;;;;3.90;3.00;;;;;;;;;;6028747;23;20638;-92
2022/08/04 04:08:22;;;;;;;4.40;3.03;;;;;;;;;;5998306;23;20484;-91
2022/08/04 04:11:00;;;;;;;4.77;3.57;;;;;;;;;;5997372;23;20461;-92
2022/08/04 04:13:45;;;;;;;5.80;3.70;;;;;;;;;;5993543;23;20575;-93
2022/08/04 04:16:14;;;;;;;5.93;3.43;;;;;;;;;;6025945;23;20381;-92
2022/08/04 04:18:47;;;;;;;5.30;3.30;;;;;;;;;;5998844;23;20479;-93
2022/08/04 04:21:31;;;;;;;3.80;3.57;;;;;;;;;;6020652;23;20376;-92
2022/08/04 04:24:00;;;;;;;3.23;2.93;;;;;;;;;;6015370;23;20436;-92
2022/08/04 04:26:45;;;;;;;5.83;2.90;;;;;;;;;;6000840;23;20407;-92
2022/08/04 04:29:29;;;;;;;5.07;3.40;;;;;;;;;;5997108;23;20930;-91
2022/08/04 04:31:56;;;;;;;3.93;3.57;;;;;;;;;;5997671;23;20564;-92
2022/08/04 04:34:28;;;;;;;4.67;3.27;;;;;;;;;;6020402;23;20369;-92
2022/08/04 04:36:57;;;;;;;4.43;3.13;;;;;;;;;;5991613;23;20871;-93
2022/08/04 04:39:32;;;;;;;3.20;3.00;;;;;;;;;;5987137;23;20406;-92
2022/08/04 04:42:18;;;;;;;5.00;3.40;;;;;;;;;;5991211;23;20412;-92
2022/08/04 04:45:10;;;;;;;3.27;2.97;;;;;;;;;;5997919;23;20377;-91
2022/08/04 04:47:41;;;;;;;3.50;2.97;;;;;;;;;;5973240;23;20392;-91
2022/08/04 04:50:17;;;;;;;3.40;3.10;;;;;;;;;;6009217;23;20397;-92
2022/08/04 04:52:47;;;;;;;2.77;2.53;;;;;;;;;;5992136;23;20415;-92
2022/08/04 04:55:18;;;;;;;3.23;2.93;;;;;;;;;;5998379;23;20409;-92
2022/08/04 04:57:45;;;;;;;3.50;3.30;;;;;;;;;;5996731;23;20392;-92
2022/08/04 05:00:12;;;;;;;5.50;3.53;;;;;;;;;;5987480;23;20392;-91
2022/08/04 05:02:48;;;;;;;6.10;3.07;;;;;;;;;;6020516;23;20942;-91
2022/08/04 05:05:27;;;;;;;7.47;4.00;;;;;;;;;;5992520;23;20435;-92
2022/08/04 05:08:01;;;;;;;3.60;3.30;;;;;;;;;;5991183;23;20428;-92
2022/08/04 05:10:27;;;;;;;3.77;3.47;;;;;;;;;;5988675;23;20420;-93
2022/08/04 05:13:05;;;;;;;3.23;2.90;;;;;;;;;;5985961;23;20431;-90
2022/08/04 05:15:35;;;;;;;4.10;3.70;;;;;;;;;;5986512;23;20459;-91
2022/08/04 05:18:03;;;;;;;4.73;3.60;;;;;;;;;;5984094;23;20862;-91
2022/08/04 05:20:41;;;;;;;3.10;2.90;;;;;;;;;;5987249;23;20519;-91
2022/08/04 05:23:07;;;;;;;2.93;2.73;;;;;;;;;;5978297;23;20407;-90
2022/08/04 05:25:44;;;;;;;3.67;3.40;;;;;;;;;;6010660;23;20721;-92
2022/08/04 05:28:20;;;;;;;4.60;3.30;;;;;;;;;;5985297;23;20902;-92
2022/08/04 05:30:48;;;;;;;3.37;3.20;;;;;;;;;;5988693;23;20392;-93
2022/08/04 05:33:21;;;;;;;4.33;3.00;;;;;;;;;;5991945;23;20973;-93
2022/08/04 05:35:52;;;;;;;3.03;2.93;;;;;;;;;;5964965;23;20393;-93
2022/08/04 05:38:21;;;;;;;3.47;3.20;;;;;;;;;;5967134;23;20404;-92
2022/08/04 05:40:48;;;;;;;6.00;2.93;;;;;;;;;;5987020;23;20392;-92
2022/08/04 05:43:16;;;;;;;6.03;3.50;;;;;;;;;;5992672;23;20392;-92
2022/08/04 05:45:46;;;;;;;4.27;3.40;;;;;;;;;;5990807;23;20412;-90
2022/08/04 05:48:13;;;;;;;3.73;2.63;;;;;;;;;;5989325;23;20396;-92
2022/08/04 05:50:39;;;;;;;4.77;3.10;;;;;;;;;;6013270;23;20392;-92
2022/08/04 05:53:05;;;;;;;4.40;3.17;;;;;;;;;;5988737;23;20447;-91
2022/08/04 05:55:32;;;;;;;4.30;4.00;;;;;;;;;;6017328;23;20428;-93
2022/08/04 05:57:59;;;;;;;4.43;3.00;;;;;;;;;;5996519;23;20397;-92
2022/08/04 06:00:26;;;;;;;4.57;2.90;;;;;;;;;;5996728;23;20400;-93
2022/08/04 06:02:52;;;;;;;3.33;3.13;;;;;;;;;;6000638;23;20392;-91
2022/08/04 06:05:18;;;;;;;2.80;2.60;;;;;;;;;;6001718;23;20515;-92
2022/08/04 06:07:46;;;;;;;4.50;3.27;;;;;;;;;;5994736;23;21011;-93
2022/08/04 06:10:12;;;;;;;6.10;2.93;;;;;;;;;;5994276;23;20404;-93
2022/08/04 06:13:00;;;;;;;3.17;2.97;;;;;;;;;;5992763;23;20440;-90
2022/08/04 06:15:27;;;;;;;3.73;3.40;;;;;;;;;;6018725;23;20377;-93
2022/08/04 06:17:54;;;;;;;3.10;2.90;;;;;;;;;;5992006;23;20404;-93
2022/08/04 06:20:26;;;;;;;4.17;3.37;;;;;;;;;;5992296;23;20468;-91
2022/08/04 06:23:08;;;;;;;4.67;3.33;;;;;;;;;;5987382;23;20912;-93
2022/08/04 06:25:44;;;;;;;3.60;3.40;;;;;;;;;;5985964;23;20392;-93
2022/08/04 06:28:24;;;;;;;4.70;3.10;;;;;;;;;;5991949;23;20492;-92
2022/08/04 06:30:51;;;;;;;3.03;2.80;;;;;;;;;;5995814;23;20591;-91
2022/08/04 06:33:25;;;;;;;7.73;3.60;;;;;;;;;;5983593;24;20548;-93
2022/08/04 06:35:54;;;;;;;3.83;3.00;;;;;;;;;;5987426;24;20373;-93
2022/08/04 06:38:24;;;;;;;5.70;3.30;;;;;;;;;;5978317;24;20409;-92
2022/08/04 06:40:56;;;;;;;9.80;3.20;;;;;;;;;;5984002;24;20390;-92
2022/08/04 06:43:31;;;;;;;3.33;3.23;;;;;;;;;;5980059;24;20799;-92
2022/08/04 06:46:01;;;;;;;4.17;3.23;;;;;;;;;;5983750;24;20393;-92
2022/08/04 06:48:27;;;;;;;4.30;3.40;;;;;;;;;;5981604;24;20477;-92
2022/08/04 06:51:01;;;;;;;4.13;3.10;;;;;;;;;;5990134;24;20413;-91
2022/08/04 06:53:27;;;;;;;15.63;5.50;;;;;;;;;;5984779;23;20922;-91
2022/08/04 06:55:54;;;;;;;6.77;4.53;;;;;;;;;;5985193;24;20386;-91
2022/08/04 06:58:21;;;;;;;6.27;4.70;;;;;;;;;;5988523;24;20488;-92
2022/08/04 07:00:48;;;;;;;4.20;3.90;;;;;;;;;;5982272;24;20496;-91
2022/08/04 07:03:15;;;;;;;4.27;4.00;;;;;;;;;;5981619;23;20441;-91
2022/08/04 07:05:41;;;;;;;3.77;3.27;;;;;;;;;;5979478;24;20454;-89
2022/08/04 07:08:09;;;;;;;4.20;3.83;;;;;;;;;;5978741;24;20872;-91
2022/08/04 07:10:36;;;;;;;9.10;3.13;;;;;;;;;;5979502;24;20400;-90
2022/08/04 07:13:02;;;;;;;3.40;3.10;;;;;;;;;;5980003;24;20437;-88
2022/08/04 07:15:31;;;;;;;6.23;3.10;;;;;;;;;;5984221;24;20385;-89
2022/08/04 07:17:58;;;;;;;5.63;3.17;;;;;;;;;;5981365;24;20388;-92
2022/08/04 07:20:25;;;;;;;3.13;2.93;;;;;;;;;;5982675;24;20433;-91
2022/08/04 07:22:51;;;;;;;3.10;2.90;;;;;;;;;;5974504;24;20394;-91
2022/08/04 07:25:17;;;;;;;4.23;3.60;;;;;;;;;;5982495;24;20385;-91
2022/08/04 07:27:44;;;;;;;3.30;3.10;;;;;;;;;;5990016;24;20401;-89
2022/08/04 07:30:10;;;;;;;2.93;2.83;;;;;;;;;;5993476;24;20448;-89
2022/08/04 07:32:37;;;;;;;3.33;3.20;;;;;;;;;;5990699;24;20456;-90
2022/08/04 07:35:08;;;;;;;3.47;3.37;;;;;;;;;;5986211;24;20402;-87
2022/08/04 07:37:34;;;;;;;3.57;3.27;;;;;;;;;;5986624;24;20470;-89
2022/08/04 07:40:00;;;;;;;5.60;3.10;;;;;;;;;;5988192;24;20373;-89
2022/08/04 07:42:26;;;;;;;3.17;2.97;;;;;;;;;;5982714;24;20895;-90
2022/08/04 07:44:52;;;;;;;3.47;3.27;;;;;;;;;;5985078;24;20390;-89
2022/08/04 07:47:19;;;;;;;2.97;2.80;;;;;;;;;;5982440;24;20440;-91
2022/08/04 07:49:44;;;;;;;3.20;3.17;;;;;;;;;;5993169;24;20389;-90
2022/08/04 07:52:11;;;;;;;3.13;3.13;;;;;;;;;;5986252;24;20393;-90
2022/08/04 07:54:38;;;;;;;3.07;2.87;;;;;;;;;;5984022;24;20378;-90
2022/08/04 07:57:04;;;;;;;2.73;2.63;;;;;;;;;;5986623;24;20906;-88
2022/08/04 07:59:34;;;;;;;3.90;2.63;;;;;;;;;;5981640;23;20539;-88
2022/08/04 08:02:01;;;;;;;2.37;2.37;;;;;;;;;;5996213;24;20405;-87
2022/08/04 08:04:28;;;;;;;3.07;2.93;;;;;;;;;;5977169;23;20858;-88
2022/08/04 08:06:56;;;;;;;3.00;3.00;;;;;;;;;;5978976;24;20413;-87
2022/08/04 08:09:22;;;;;;;3.10;3.00;;;;;;;;;;5979724;24;20405;-87
2022/08/04 08:11:50;;;;;;;3.00;2.90;;;;;;;;;;5977705;24;20417;-88
2022/08/04 08:14:17;;;;;;;4.20;3.13;;;;;;;;;;5978131;24;20540;-87
2022/08/04 08:16:43;;;;;;;2.77;2.67;;;;;;;;;;5978299;24;20777;-87
2022/08/04 08:19:10;;;;;;;3.00;2.90;;;;;;;;;;5976457;24;20734;-86
2022/08/04 08:21:36;;;;;;;3.33;2.87;;;;;;;;;;5977285;24;20770;-87
2022/08/04 08:24:09;;;;;;;2.80;2.60;;;;;;;;;;5974126;24;20422;-88
2022/08/04 08:26:36;;;;;;;4.10;2.37;;;;;;;;;;5980109;24;20924;-87
2022/08/04 08:29:03;;;;;;;2.53;2.53;;;;;;;;;;5976526;24;20406;-86
2022/08/04 08:31:29;;;;;;;2.50;2.50;;;;;;;;;;5979179;24;20476;-87
2022/08/04 08:33:55;;;;;;;2.70;2.60;;;;;;;;;;5975210;24;20441;-86
2022/08/04 08:36:24;;;;;;;3.00;2.90;;;;;;;;;;5980914;24;20408;-87
2022/08/04 08:39:10;;;;;;;2.53;2.33;;;;;;;;;;5977357;24;20434;-87
2022/08/04 08:42:07;;;;;;;2.60;2.50;;;;;;;;;;5979282;24;20369;-85
2022/08/04 08:44:52;;;;;;;3.47;2.43;;;;;;;;;;5978104;24;20397;-87
2022/08/04 08:47:27;;;;;;;2.27;2.27;;;;;;;;;;5975518;24;20438;-88
2022/08/04 08:50:08;;;;;;;2.67;2.50;;;;;;;;;;5975352;24;20437;-88
2022/08/04 08:52:38;;;;;;;2.30;2.20;;;;;;;;;;5973871;24;20524;-86
2022/08/04 08:55:04;;;;;;;2.20;2.20;;;;;;;;;;5975387;24;20417;-89
2022/08/04 08:57:49;;;;;;;2.37;2.13;;;;;;;;;;5972939;24;20598;-88
2022/08/04 09:00:39;;;;;;;2.67;2.27;;;;;;;;;;5975661;24;20477;-88
2022/08/04 09:03:13;;;;;;;2.80;2.17;;;;;;;;;;5960767;23;20493;-88
2022/08/04 09:05:58;;;;;;;2.30;2.30;;;;;;;;;;5978588;24;20369;-88
2022/08/04 09:08:48;;;;;;;3.10;2.20;;;;;;;;;;5975164;24;20405;-88
2022/08/04 09:11:16;;;;;;;2.10;2.00;;;;;;;;;;5979530;24;20390;-88
2022/08/04 09:13:49;;;;;;;3.37;2.33;;;;;;;;;;5977316;24;20426;-88
2022/08/04 09:16:41;;;;;;;2.20;2.10;;;;;;;;;;5977822;24;20560;-87
2022/08/04 09:19:19;;;;;;;2.50;2.40;;;;;;;;;;5933451;24;20388;-88
2022/08/04 09:22:01;;;;;;;2.27;2.17;;;;;;;;;;5979684;24;20404;-88
2022/08/04 09:24:46;;;;;;;2.40;2.20;;;;;;;;;;5974507;24;20480;-88
2022/08/04 09:27:19;;;;;;;2.23;2.23;;;;;;;;;;5979426;24;21087;-89
2022/08/04 09:30:04;;;;;;;1.90;1.90;;;;;;;;;;5974491;24;20441;-88
2022/08/04 09:32:44;;;;;;;2.53;2.30;;;;;;;;;;5977754;24;20534;-88
2022/08/04 09:35:25;;;;;;;2.50;2.00;;;;;;;;;;5981329;24;20358;-88
2022/08/04 09:38:11;;;;;;;2.43;2.30;;;;;;;;;;5977930;24;20397;-88
2022/08/04 09:40:49;;;;;;;2.50;2.40;;;;;;;;;;5986305;23;20380;-87
2022/08/04 09:43:36;;;;;;;2.80;2.70;;;;;;;;;;5986827;24;20533;-88
2022/08/04 09:46:15;;;;;;;2.67;2.67;;;;;;;;;;5986198;24;21144;-87
2022/08/04 09:48:51;;;;;;;2.40;2.37;;;;;;;;;;5981417;24;20392;-89
2022/08/04 09:51:44;;;;;;;2.60;2.43;;;;;;;;;;5981211;24;20382;-87
2022/08/04 09:54:20;;;;;;;2.43;2.43;;;;;;;;;;5935943;24;20444;-87
2022/08/04 09:56:49;;;;;;;4.80;3.20;;;;;;;;;;5980133;24;20803;-87
2022/08/04 09:59:19;;;;;;;3.10;2.90;;;;;;;;;;5976594;24;20394;-86
2022/08/04 10:01:46;;;;;;;3.00;2.90;;;;;;;;;;5981085;24;20397;-86
2022/08/04 10:04:14;;;;;;;5.23;3.60;;;;;;;;;;5980156;23;20458;-87
2022/08/04 10:06:59;;;;;;;3.30;3.30;;;;;;;;;;5957911;24;20390;-85
2022/08/04 10:09:34;;;;;;;3.10;3.00;;;;;;;;;;5955168;24;20386;-86
2022/08/04 10:12:08;;;;;;;2.63;2.63;;;;;;;;;;5956400;24;20457;-86
2022/08/04 10:14:34;;;;;;;6.13;2.77;;;;;;;;;;5952799;24;20492;-86
2022/08/04 10:17:29;;;;;;;3.53;3.23;;;;;;;;;;5952716;24;20487;-85
2022/08/04 10:20:14;;;;;;;2.67;2.50;;;;;;;;;;5909827;24;20409;-87
2022/08/04 10:22:48;;;;;;;2.57;2.47;;;;;;;;;;5975993;24;20420;-85
2022/08/04 10:25:32;;;;;;;3.17;2.80;;;;;;;;;;5952010;24;20390;-85
2022/08/04 10:27:59;;;;;;;2.43;2.43;;;;;;;;;;5949000;24;20404;-84
2022/08/04 10:30:27;;;;;;;2.87;2.77;;;;;;;;;;5956121;24;20722;-86
2022/08/04 10:32:53;;;;;;;7.93;2.50;;;;;;;;;;5953376;24;20752;-85
2022/08/04 10:35:22;;;;;;;3.83;2.90;;;;;;;;;;5952754;24;20465;-85
2022/08/04 10:38:07;;;;;;;2.37;2.23;;;;;;;;;;5954734;24;20410;-86
2022/08/04 10:40:43;;;;;;;3.07;2.97;;;;;;;;;;5957741;24;20366;-86
2022/08/04 10:43:28;;;;;;;3.00;2.70;;;;;;;;;;5954218;24;20394;-87
2022/08/04 10:45:59;;;;;;;2.97;2.73;;;;;;;;;;5958898;24;20434;-86
2022/08/04 10:48:50;;;;;;;2.67;2.60;;;;;;;;;;5957008;24;20472;-87
2022/08/04 10:51:31;;;;;;;2.73;2.63;;;;;;;;;;5970421;24;20378;-86
2022/08/04 10:54:02;;;;;;;2.67;2.50;;;;;;;;;;5998238;23;20459;-85
2022/08/04 10:56:33;;;;;;;2.80;2.43;;;;;;;;;;5962997;24;20496;-86
2022/08/04 10:59:06;;;;;;;4.67;3.03;;;;;;;;;;5959538;24;20389;-86
2022/08/04 11:01:39;;;;;;;6.17;2.80;;;;;;;;;;5977233;24;20433;-85
2022/08/04 11:04:09;;;;;;;3.30;2.97;;;;;;;;;;5980833;23;20413;-84
2022/08/04 11:06:36;;;;;;;5.20;2.63;;;;;;;;;;5980837;24;20386;-86
2022/08/04 11:09:03;;;;;;;3.67;3.07;;;;;;;;;;5973710;24;20902;-86
2022/08/04 11:11:44;;;;;;;2.80;2.63;;;;;;;;;;5980520;24;20420;-86
2022/08/04 11:14:10;;;;;;;9.10;4.20;;;;;;;;;;5974647;24;20441;-85
2022/08/04 11:16:44;;;;;;;3.27;3.07;;;;;;;;;;5978149;24;20482;-86
2022/08/04 11:19:26;;;;;;;8.80;2.70;;;;;;;;;;5976930;24;20386;-86
2022/08/04 11:21:57;;;;;;;3.37;2.63;;;;;;;;;;5979573;24;20396;-85
2022/08/04 11:24:43;;;;;;;6.83;2.30;;;;;;;;;;5972146;24;20818;-87
2022/08/04 11:27:13;;;;;;;6.27;3.30;;;;;;;;;;5920197;24;20424;-84
2022/08/04 11:29:51;;;;;;;2.40;2.20;;;;;;;;;;5975938;24;20416;-87
2022/08/04 11:32:19;;;;;;;6.37;3.20;;;;;;;;;;5973921;24;20393;-85
2022/08/04 11:34:48;;;;;;;5.80;3.37;;;;;;;;;;5973552;24;20413;-85
2022/08/04 11:37:23;;;;;;;4.80;2.70;;;;;;;;;;5977752;24;20377;-85
2022/08/04 11:39:59;;;;;;;4.87;4.47;;;;;;;;;;5973606;24;20398;-85
2022/08/04 11:42:25;;;;;;;5.33;4.97;;;;;;;;;;5975698;24;20397;-86
2022/08/04 11:45:10;;;;;;;3.17;3.07;;;;;;;;;;5973611;24;20405;-86
2022/08/04 11:47:49;;;;;;;3.97;3.47;;;;;;;;;;5981631;24;20433;-86
2022/08/04 11:50:29;;;;;;;5.37;2.90;;;;;;;;;;5974965;24;20906;-87
2022/08/04 11:52:57;;;;;;;3.43;3.23;;;;;;;;;;5981000;24;20555;-89
2022/08/04 11:55:24;;;;;;;3.30;3.00;;;;;;;;;;5978581;24;20409;-85
2022/08/04 11:57:50;;;;;;;2.80;2.60;;;;;;;;;;5977035;24;20405;-88
2022/08/04 12:00:18;;;;;;;3.40;3.00;;;;;;;;;;5977490;24;20440;-88
2022/08/04 12:02:59;;;;;;;3.87;3.47;;;;;;;;;;5955114;24;20418;-89
2022/08/04 12:05:35;;;;;;;9.43;3.43;;;;;;;;;;5956181;24;20405;-88
2022/08/04 12:08:07;;;;;;;6.90;3.20;;;;;;;;;;5956658;24;20394;-87
2022/08/04 12:10:39;;;;;;;5.87;3.00;;;;;;;;;;5982388;24;20374;-89
2022/08/04 12:13:10;;;;;;;2.90;2.70;;;;;;;;;;5953441;24;20537;-88
2022/08/04 12:15:40;;;;;;;3.70;3.50;;;;;;;;;;5955621;24;20921;-88
2022/08/04 12:18:08;;;;;;;2.90;2.80;;;;;;;;;;5978725;24;20465;-88
2022/08/04 12:20:39;;;;;;;4.67;2.63;;;;;;;;;;5954456;24;20393;-88
2022/08/04 12:23:10;;;;;;;3.03;2.83;;;;;;;;;;5975090;24;20389;-88
2022/08/04 12:25:39;;;;;;;4.87;3.93;;;;;;;;;;5955815;24;20939;-86
2022/08/04 12:28:07;;;;;;;3.90;2.87;;;;;;;;;;5957472;24;20393;-88
2022/08/04 12:30:35;;;;;;;3.10;2.83;;;;;;;;;;5981831;24;20441;-87
2022/08/04 12:33:03;;;;;;;10.97;3.10;;;;;;;;;;5957800;24;20520;-87
2022/08/04 12:35:36;;;;;;;5.30;3.10;;;;;;;;;;5953454;24;20941;-87
2022/08/04 12:38:05;;;;;;;4.50;2.93;;;;;;;;;;5958153;24;20401;-87
2022/08/04 12:40:51;;;;;;;5.13;2.73;;;;;;;;;;5953016;24;20514;-87
2022/08/04 12:43:37;;;;;;;28.87;5.17;;;;;;;;;;5956387;24;20377;-85
2022/08/04 12:46:07;;;;;;;34.13;5.07;;;;;;;;;;5967599;24;20390;-87
2022/08/04 12:48:35;;;;;;;2.77;2.70;;;;;;;;;;5965708;24;20966;-87
2022/08/04 12:51:02;;;;;;;3.07;2.97;;;;;;;;;;5966909;24;20409;-87
2022/08/04 12:53:31;;;;;;;4.00;3.10;;;;;;;;;;5957118;24;20521;-86
2022/08/04 12:55:59;;;;;;;3.83;3.07;;;;;;;;;;5957663;24;20422;-89
2022/08/04 12:58:27;;;;;;;5.13;3.10;;;;;;;;;;5958133;24;20392;-88
2022/08/04 13:00:58;;;;;;;4.03;2.60;;;;;;;;;;5969657;24;21074;-87
2022/08/04 13:03:28;;;;;;;2.83;2.60;;;;;;;;;;5984931;23;20429;-89
2022/08/04 13:05:57;;;;;;;4.97;3.70;;;;;;;;;;6000965;24;20398;-89
2022/08/04 13:08:23;;;;;;;4.00;2.97;;;;;;;;;;5994601;24;20390;-88
2022/08/04 13:10:51;;;;;;;4.43;4.13;;;;;;;;;;5987669;24;20381;-87
2022/08/04 13:13:18;;;;;;;4.97;4.47;;;;;;;;;;5981888;24;20516;-84
2022/08/04 13:15:54;;;;;;;4.90;4.50;;;;;;;;;;5984475;24;20477;-84
2022/08/04 13:18:21;;;;;;;8.40;7.70;;;;;;;;;;5982055;24;21024;-86
2022/08/04 13:20:47;;;;;;;5.20;4.47;;;;;;;;;;5980341;24;20406;-85
2022/08/04 13:23:14;;;;;;;6.10;4.40;;;;;;;;;;5980759;24;20389;-87
2022/08/04 13:25:42;;;;;;;7.37;4.37;;;;;;;;;;5983750;24;20779;-86
2022/08/04 13:28:12;;;;;;;7.63;3.93;;;;;;;;;;5979299;24;20874;-86
2022/08/04 13:30:38;;;;;;;8.33;4.07;;;;;;;;;;5977350;24;20687;-87
2022/08/04 13:33:04;;;;;;;6.87;4.47;;;;;;;;;;5979527;24;20413;-86
2022/08/04 13:35:31;;;;;;;8.90;4.10;;;;;;;;;;5976949;24;20409;-87
2022/08/04 13:37:58;;;;;;;7.63;4.53;;;;;;;;;;5977537;24;20457;-86
2022/08/04 13:40:25;;;;;;;4.20;4.00;;;;;;;;;;5983004;24;20377;-86
2022/08/04 13:42:52;;;;;;;4.20;3.90;;;;;;;;;;5980520;24;20401;-86
2022/08/04 13:45:22;;;;;;;3.60;3.40;;;;;;;;;;5981037;24;20397;-86
2022/08/04 13:47:50;;;;;;;3.40;3.30;;;;;;;;;;5983249;24;20397;-88
2022/08/04 13:50:30;;;;;;;4.80;4.50;;;;;;;;;;5988764;24;20429;-87
2022/08/04 13:53:00;;;;;;;3.40;3.20;;;;;;;;;;5981550;24;20463;-87
2022/08/04 13:55:49;;;;;;;5.60;4.00;;;;;;;;;;5983250;24;20468;-87
2022/08/04 13:58:21;;;;;;;3.60;3.40;;;;;;;;;;5985356;24;20400;-87
2022/08/04 14:00:58;;;;;;;3.70;3.57;;;;;;;;;;5981722;24;20475;-86
2022/08/04 14:03:37;;;;;;;5.63;3.60;;;;;;;;;;5983184;23;20428;-89
2022/08/04 14:06:09;;;;;;;5.00;3.40;;;;;;;;;;5988619;24;21107;-93
2022/08/04 14:08:55;;;;;;;4.97;3.63;;;;;;;;;;5983099;24;20390;-92
2022/08/04 14:11:30;;;;;;;5.23;3.57;;;;;;;;;;5975400;23;20377;-88
2022/08/04 14:14:00;;;;;;;5.03;4.00;;;;;;;;;;5984477;24;20518;-90
2022/08/04 14:16:27;;;;;;;8.03;3.57;;;;;;;;;;5984930;24;20453;-92
2022/08/04 14:19:01;;;;;;;2.93;2.83;;;;;;;;;;5986789;24;21052;-89
2022/08/04 14:21:27;;;;;;;3.43;3.27;;;;;;;;;;5991480;24;20389;-91
2022/08/04 14:23:57;;;;;;;3.83;3.40;;;;;;;;;;5991202;24;20478;-91
2022/08/04 14:26:25;;;;;;;6.40;3.50;;;;;;;;;;5969992;24;20382;-90
2022/08/04 14:28:56;;;;;;;6.43;3.67;;;;;;;;;;5992948;24;20390;-91
2022/08/04 14:31:23;;;;;;;4.07;3.93;;;;;;;;;;5990734;24;20405;-93
2022/08/04 14:33:50;;;;;;;3.10;2.90;;;;;;;;;;5992100;24;20425;-90
2022/08/04 14:36:17;;;;;;;4.20;4.03;;;;;;;;;;5989142;24;20506;-92
2022/08/04 14:38:46;;;;;;;3.50;3.40;;;;;;;;;;5985987;24;20385;-91
2022/08/04 14:41:12;;;;;;;4.00;3.70;;;;;;;;;;5986670;24;20442;-91
2022/08/04 14:43:46;;;;;;;3.20;3.00;;;;;;;;;;5987199;24;20388;-92
2022/08/04 14:46:16;;;;;;;3.57;3.37;;;;;;;;;;5989987;24;20441;-91
2022/08/04 14:49:01;;;;;;;5.60;3.90;;;;;;;;;;5995242;24;20401;-89
2022/08/04 14:51:27;;;;;;;4.40;4.00;;;;;;;;;;5996958;24;20434;-91
2022/08/04 14:53:53;;;;;;;4.53;4.20;;;;;;;;;;6001585;23;20489;-92
2022/08/04 14:56:32;;;;;;;3.70;3.50;;;;;;;;;;5998169;24;20393;-91
2022/08/04 14:59:00;;;;;;;4.20;3.30;;;;;;;;;;5990992;24;20457;-91
2022/08/04 15:01:32;;;;;;;4.50;3.43;;;;;;;;;;5991381;24;20429;-93
2022/08/04 15:04:11;;;;;;;;;;;;;;;;;;;;;
2022/08/04 15:07:10;;;;;;;4.07;3.60;;;;;;;;;;5993883;23;20641;-90
2022/08/04 15:09:36;;;;;;;4.20;3.97;;;;;;;;;;5988217;23;20878;-90
2022/08/04 15:12:03;;;;;;;11.13;4.47;;;;;;;;;;5986042;24;20402;-92
2022/08/04 15:14:34;;;;;;;5.10;3.60;;;;;;;;;;5985264;24;20493;-91
2022/08/04 15:17:00;;;;;;;6.67;3.87;;;;;;;;;;5997445;24;20424;-91
2022/08/04 15:19:41;;;;;;;12.33;3.87;;;;;;;;;;5999888;24;20961;-92